sensor_id;sensor_type;location;lat;lon;timestamp;temperature;humidity
7720;DHT22;3902;49.474;8.616;2023-04-04T00:00:29;5.80;84.80
7720;DHT22;3902;49.474;8.616;2023-04-04T00:02:54;5.90;85.40
7720;DHT22;3902;49.474;8.616;2023-04-04T00:05:20;5.80;84.00
7720;DHT22;3902;49.474;8.616;2023-04-04T00:07:45;5.90;85.80
7720;DHT22;3902;49.474;8.616;2023-04-04T00:10:11;5.90;85.50
7720;DHT22;3902;49.474;8.616;2023-04-04T00:12:37;5.90;85.80
7720;DHT22;3902;49.474;8.616;2023-04-04T00:15:03;5.90;85.40
7720;DHT22;3902;49.474;8.616;2023-04-04T00:17:29;5.90;85.30
7720;DHT22;3902;49.474;8.616;2023-04-04T00:19:54;5.60;83.60
7720;DHT22;3902;49.474;8.616;2023-04-04T00:22:22;5.70;85.10
7720;DHT22;3902;49.474;8.616;2023-04-04T00:24:47;5.70;85.10
7720;DHT22;3902;49.474;8.616;2023-04-04T00:27:14;5.70;86.10
7720;DHT22;3902;49.474;8.616;2023-04-04T00:29:39;5.60;85.30
7720;DHT22;3902;49.474;8.616;2023-04-04T00:32:05;5.70;85.80
7720;DHT22;3902;49.474;8.616;2023-04-04T00:34:30;5.70;85.60
7720;DHT22;3902;49.474;8.616;2023-04-04T00:36:56;5.70;85.60
7720;DHT22;3902;49.474;8.616;2023-04-04T00:39:23;5.70;86.20
7720;DHT22;3902;49.474;8.616;2023-04-04T00:41:49;5.60;85.00
7720;DHT22;3902;49.474;8.616;2023-04-04T00:44:14;5.60;85.90
7720;DHT22;3902;49.474;8.616;2023-04-04T00:46:40;5.60;85.90
7720;DHT22;3902;49.474;8.616;2023-04-04T00:49:06;5.60;86.10
7720;DHT22;3902;49.474;8.616;2023-04-04T00:51:31;5.60;86.10
7720;DHT22;3902;49.474;8.616;2023-04-04T00:53:57;5.60;85.40
7720;DHT22;3902;49.474;8.616;2023-04-04T00:56:23;5.60;86.60
7720;DHT22;3902;49.474;8.616;2023-04-04T00:58:49;5.60;86.20
7720;DHT22;3902;49.474;8.616;2023-04-04T01:01:15;5.60;86.90
7720;DHT22;3902;49.474;8.616;2023-04-04T01:03:41;5.60;86.80
7720;DHT22;3902;49.474;8.616;2023-04-04T01:06:07;5.50;87.40
7720;DHT22;3902;49.474;8.616;2023-04-04T01:08:35;5.60;87.10
7720;DHT22;3902;49.474;8.616;2023-04-04T01:11:01;5.40;87.50
7720;DHT22;3902;49.474;8.616;2023-04-04T01:13:27;5.40;88.00
7720;DHT22;3902;49.474;8.616;2023-04-04T01:15:53;5.40;87.20
7720;DHT22;3902;49.474;8.616;2023-04-04T01:18:20;5.50;87.10
7720;DHT22;3902;49.474;8.616;2023-04-04T01:21:07;5.50;87.50
7720;DHT22;3902;49.474;8.616;2023-04-04T01:23:58;5.40;87.90
7720;DHT22;3902;49.474;8.616;2023-04-04T01:26:24;5.40;87.50
7720;DHT22;3902;49.474;8.616;2023-04-04T01:28:52;5.40;87.60
7720;DHT22;3902;49.474;8.616;2023-04-04T01:31:22;5.40;87.20
7720;DHT22;3902;49.474;8.616;2023-04-04T01:34:03;5.30;87.80
7720;DHT22;3902;49.474;8.616;2023-04-04T01:36:51;5.30;88.10
7720;DHT22;3902;49.474;8.616;2023-04-04T01:39:26;5.30;88.20
7720;DHT22;3902;49.474;8.616;2023-04-04T01:41:53;5.30;88.80
7720;DHT22;3902;49.474;8.616;2023-04-04T01:44:20;5.30;88.60
7720;DHT22;3902;49.474;8.616;2023-04-04T01:46:52;5.20;88.90
7720;DHT22;3902;49.474;8.616;2023-04-04T01:49:18;5.20;88.70
7720;DHT22;3902;49.474;8.616;2023-04-04T01:51:43;5.20;88.60
7720;DHT22;3902;49.474;8.616;2023-04-04T01:54:09;5.20;89.30
7720;DHT22;3902;49.474;8.616;2023-04-04T01:56:35;5.20;89.60
7720;DHT22;3902;49.474;8.616;2023-04-04T01:59:00;5.10;90.10
7720;DHT22;3902;49.474;8.616;2023-04-04T02:01:26;5.10;90.10
7720;DHT22;3902;49.474;8.616;2023-04-04T02:03:51;5.10;90.00
7720;DHT22;3902;49.474;8.616;2023-04-04T02:06:17;5.00;90.40
7720;DHT22;3902;49.474;8.616;2023-04-04T02:08:42;5.10;90.30
7720;DHT22;3902;49.474;8.616;2023-04-04T02:11:07;5.00;90.40
7720;DHT22;3902;49.474;8.616;2023-04-04T02:13:33;5.00;90.50
7720;DHT22;3902;49.474;8.616;2023-04-04T02:15:58;4.90;90.40
7720;DHT22;3902;49.474;8.616;2023-04-04T02:18:24;4.90;90.60
7720;DHT22;3902;49.474;8.616;2023-04-04T02:20:56;4.90;90.50
7720;DHT22;3902;49.474;8.616;2023-04-04T02:23:21;4.90;90.60
7720;DHT22;3902;49.474;8.616;2023-04-04T02:25:49;4.90;90.40
7720;DHT22;3902;49.474;8.616;2023-04-04T02:28:15;4.90;90.30
7720;DHT22;3902;49.474;8.616;2023-04-04T02:30:41;4.80;90.40
7720;DHT22;3902;49.474;8.616;2023-04-04T02:33:13;4.80;90.00
7720;DHT22;3902;49.474;8.616;2023-04-04T02:35:39;4.80;90.30
7720;DHT22;3902;49.474;8.616;2023-04-04T02:38:04;4.80;90.00
7720;DHT22;3902;49.474;8.616;2023-04-04T02:40:30;4.80;90.30
7720;DHT22;3902;49.474;8.616;2023-04-04T02:42:55;4.80;90.10
7720;DHT22;3902;49.474;8.616;2023-04-04T02:45:21;4.70;90.40
7720;DHT22;3902;49.474;8.616;2023-04-04T02:47:50;4.70;90.60
7720;DHT22;3902;49.474;8.616;2023-04-04T02:50:16;4.80;90.70
7720;DHT22;3902;49.474;8.616;2023-04-04T02:52:41;4.70;90.50
7720;DHT22;3902;49.474;8.616;2023-04-04T02:55:07;4.70;90.70
7720;DHT22;3902;49.474;8.616;2023-04-04T02:57:33;4.70;90.60
7720;DHT22;3902;49.474;8.616;2023-04-04T02:59:59;4.70;90.60
7720;DHT22;3902;49.474;8.616;2023-04-04T03:02:24;4.60;90.90
7720;DHT22;3902;49.474;8.616;2023-04-04T03:04:50;4.70;90.90
7720;DHT22;3902;49.474;8.616;2023-04-04T03:07:16;4.60;91.50
7720;DHT22;3902;49.474;8.616;2023-04-04T03:09:42;4.60;91.00
7720;DHT22;3902;49.474;8.616;2023-04-04T03:12:09;4.60;90.90
7720;DHT22;3902;49.474;8.616;2023-04-04T03:14:35;4.60;90.80
7720;DHT22;3902;49.474;8.616;2023-04-04T03:17:01;4.60;91.10
7720;DHT22;3902;49.474;8.616;2023-04-04T03:19:28;4.60;90.90
7720;DHT22;3902;49.474;8.616;2023-04-04T03:21:53;4.50;91.00
7720;DHT22;3902;49.474;8.616;2023-04-04T03:24:19;4.50;90.90
7720;DHT22;3902;49.474;8.616;2023-04-04T03:26:45;4.50;91.00
7720;DHT22;3902;49.474;8.616;2023-04-04T03:29:10;4.50;91.10
7720;DHT22;3902;49.474;8.616;2023-04-04T03:31:36;4.50;91.30
7720;DHT22;3902;49.474;8.616;2023-04-04T03:34:01;4.40;91.40
7720;DHT22;3902;49.474;8.616;2023-04-04T03:36:29;4.40;91.40
7720;DHT22;3902;49.474;8.616;2023-04-04T03:38:55;4.40;91.20
7720;DHT22;3902;49.474;8.616;2023-04-04T03:41:20;4.40;91.30
7720;DHT22;3902;49.474;8.616;2023-04-04T03:43:46;4.40;91.70
7720;DHT22;3902;49.474;8.616;2023-04-04T03:46:12;4.30;91.60
7720;DHT22;3902;49.474;8.616;2023-04-04T03:48:38;4.30;91.90
7720;DHT22;3902;49.474;8.616;2023-04-04T03:51:04;4.30;91.60
7720;DHT22;3902;49.474;8.616;2023-04-04T03:53:30;4.30;91.50
7720;DHT22;3902;49.474;8.616;2023-04-04T03:55:56;4.30;91.40
7720;DHT22;3902;49.474;8.616;2023-04-04T03:58:22;4.30;91.60
7720;DHT22;3902;49.474;8.616;2023-04-04T04:00:48;4.20;90.70
7720;DHT22;3902;49.474;8.616;2023-04-04T04:03:14;4.20;90.70
7720;DHT22;3902;49.474;8.616;2023-04-04T04:05:40;4.30;91.00
7720;DHT22;3902;49.474;8.616;2023-04-04T04:08:06;4.30;90.80
7720;DHT22;3902;49.474;8.616;2023-04-04T04:10:32;4.30;90.70
7720;DHT22;3902;49.474;8.616;2023-04-04T04:12:58;4.30;90.80
7720;DHT22;3902;49.474;8.616;2023-04-04T04:15:24;4.20;91.10
7720;DHT22;3902;49.474;8.616;2023-04-04T04:17:49;4.30;91.20
7720;DHT22;3902;49.474;8.616;2023-04-04T04:20:15;4.20;91.00
7720;DHT22;3902;49.474;8.616;2023-04-04T04:22:45;4.30;91.40
7720;DHT22;3902;49.474;8.616;2023-04-04T04:25:11;4.20;90.90
7720;DHT22;3902;49.474;8.616;2023-04-04T04:27:37;4.10;91.30
7720;DHT22;3902;49.474;8.616;2023-04-04T04:30:03;4.20;91.30
7720;DHT22;3902;49.474;8.616;2023-04-04T04:32:29;4.10;91.40
7720;DHT22;3902;49.474;8.616;2023-04-04T04:34:54;4.10;91.50
7720;DHT22;3902;49.474;8.616;2023-04-04T04:37:20;4.10;91.60
7720;DHT22;3902;49.474;8.616;2023-04-04T04:39:45;4.10;91.40
7720;DHT22;3902;49.474;8.616;2023-04-04T04:42:11;4.10;91.60
7720;DHT22;3902;49.474;8.616;2023-04-04T04:44:36;4.10;91.90
7720;DHT22;3902;49.474;8.616;2023-04-04T04:47:02;4.00;91.60
7720;DHT22;3902;49.474;8.616;2023-04-04T04:49:28;4.00;91.80
7720;DHT22;3902;49.474;8.616;2023-04-04T04:51:54;4.00;91.70
7720;DHT22;3902;49.474;8.616;2023-04-04T04:54:19;4.00;91.60
7720;DHT22;3902;49.474;8.616;2023-04-04T04:56:45;4.00;91.30
7720;DHT22;3902;49.474;8.616;2023-04-04T04:59:11;4.00;90.90
7720;DHT22;3902;49.474;8.616;2023-04-04T05:01:37;4.00;91.30
7720;DHT22;3902;49.474;8.616;2023-04-04T05:04:03;3.90;90.40
7720;DHT22;3902;49.474;8.616;2023-04-04T05:06:29;4.00;91.10
7720;DHT22;3902;49.474;8.616;2023-04-04T05:08:54;4.00;90.80
7720;DHT22;3902;49.474;8.616;2023-04-04T05:11:20;4.10;90.90
7720;DHT22;3902;49.474;8.616;2023-04-04T05:13:46;4.10;91.20
7720;DHT22;3902;49.474;8.616;2023-04-04T05:16:11;4.10;91.30
7720;DHT22;3902;49.474;8.616;2023-04-04T05:18:37;4.10;91.20
7720;DHT22;3902;49.474;8.616;2023-04-04T05:21:02;4.10;91.70
7720;DHT22;3902;49.474;8.616;2023-04-04T05:23:28;4.10;91.50
7720;DHT22;3902;49.474;8.616;2023-04-04T05:25:54;4.00;91.70
7720;DHT22;3902;49.474;8.616;2023-04-04T05:28:19;4.00;92.00
7720;DHT22;3902;49.474;8.616;2023-04-04T05:30:46;4.00;92.00
7720;DHT22;3902;49.474;8.616;2023-04-04T05:33:11;4.00;92.10
7720;DHT22;3902;49.474;8.616;2023-04-04T05:35:37;4.00;92.20
7720;DHT22;3902;49.474;8.616;2023-04-04T05:38:02;4.00;92.10
7720;DHT22;3902;49.474;8.616;2023-04-04T05:40:28;4.10;92.30
7720;DHT22;3902;49.474;8.616;2023-04-04T05:42:58;4.10;92.00
7720;DHT22;3902;49.474;8.616;2023-04-04T05:45:24;4.10;92.00
7720;DHT22;3902;49.474;8.616;2023-04-04T05:47:49;4.10;91.90
7720;DHT22;3902;49.474;8.616;2023-04-04T05:50:15;4.00;91.70
7720;DHT22;3902;49.474;8.616;2023-04-04T05:52:40;4.10;92.00
7720;DHT22;3902;49.474;8.616;2023-04-04T05:55:06;4.10;91.80
7720;DHT22;3902;49.474;8.616;2023-04-04T05:57:32;4.20;92.00
7720;DHT22;3902;49.474;8.616;2023-04-04T05:59:58;4.20;92.10
7720;DHT22;3902;49.474;8.616;2023-04-04T06:02:24;4.20;92.10
7720;DHT22;3902;49.474;8.616;2023-04-04T06:04:49;4.30;92.10
7720;DHT22;3902;49.474;8.616;2023-04-04T06:07:15;4.30;91.90
7720;DHT22;3902;49.474;8.616;2023-04-04T06:09:41;4.30;92.30
7720;DHT22;3902;49.474;8.616;2023-04-04T06:12:07;4.40;92.00
7720;DHT22;3902;49.474;8.616;2023-04-04T06:14:34;4.40;91.50
7720;DHT22;3902;49.474;8.616;2023-04-04T06:17:01;4.30;91.30
7720;DHT22;3902;49.474;8.616;2023-04-04T06:19:26;4.40;91.80
7720;DHT22;3902;49.474;8.616;2023-04-04T06:21:52;4.50;92.00
7720;DHT22;3902;49.474;8.616;2023-04-04T06:24:17;4.50;91.60
7720;DHT22;3902;49.474;8.616;2023-04-04T06:26:43;4.50;91.30
7720;DHT22;3902;49.474;8.616;2023-04-04T06:29:09;4.50;91.30
7720;DHT22;3902;49.474;8.616;2023-04-04T06:31:35;4.50;91.20
7720;DHT22;3902;49.474;8.616;2023-04-04T06:34:01;4.50;90.80
7720;DHT22;3902;49.474;8.616;2023-04-04T06:36:26;4.60;90.90
7720;DHT22;3902;49.474;8.616;2023-04-04T06:38:52;4.60;90.70
7720;DHT22;3902;49.474;8.616;2023-04-04T06:41:18;4.60;91.10
7720;DHT22;3902;49.474;8.616;2023-04-04T06:43:43;4.60;91.20
7720;DHT22;3902;49.474;8.616;2023-04-04T06:46:11;4.70;91.60
7720;DHT22;3902;49.474;8.616;2023-04-04T06:48:37;4.70;91.50
7720;DHT22;3902;49.474;8.616;2023-04-04T06:51:06;4.70;91.20
7720;DHT22;3902;49.474;8.616;2023-04-04T06:53:32;4.80;91.50
7720;DHT22;3902;49.474;8.616;2023-04-04T06:55:58;4.90;91.60
7720;DHT22;3902;49.474;8.616;2023-04-04T06:58:24;4.90;91.60
7720;DHT22;3902;49.474;8.616;2023-04-04T07:00:50;4.90;91.80
7720;DHT22;3902;49.474;8.616;2023-04-04T07:03:15;5.00;92.00
7720;DHT22;3902;49.474;8.616;2023-04-04T07:05:41;5.10;92.00
7720;DHT22;3902;49.474;8.616;2023-04-04T07:08:07;5.10;91.80
7720;DHT22;3902;49.474;8.616;2023-04-04T07:10:33;5.20;91.20
7720;DHT22;3902;49.474;8.616;2023-04-04T07:12:59;5.20;91.00
7720;DHT22;3902;49.474;8.616;2023-04-04T07:15:25;5.20;91.10
7720;DHT22;3902;49.474;8.616;2023-04-04T07:17:51;5.30;90.90
7720;DHT22;3902;49.474;8.616;2023-04-04T07:20:16;5.30;90.50
7720;DHT22;3902;49.474;8.616;2023-04-04T07:22:42;5.30;90.20
7720;DHT22;3902;49.474;8.616;2023-04-04T07:25:08;5.30;90.50
7720;DHT22;3902;49.474;8.616;2023-04-04T07:27:34;5.40;90.80
7720;DHT22;3902;49.474;8.616;2023-04-04T07:30:00;5.40;91.00
7720;DHT22;3902;49.474;8.616;2023-04-04T07:32:26;5.50;91.40
7720;DHT22;3902;49.474;8.616;2023-04-04T07:34:51;5.50;90.90
7720;DHT22;3902;49.474;8.616;2023-04-04T07:37:17;5.50;90.60
7720;DHT22;3902;49.474;8.616;2023-04-04T07:39:43;5.60;90.40
7720;DHT22;3902;49.474;8.616;2023-04-04T07:42:09;5.60;90.90
7720;DHT22;3902;49.474;8.616;2023-04-04T07:44:35;5.70;90.80
7720;DHT22;3902;49.474;8.616;2023-04-04T07:47:00;5.70;90.80
7720;DHT22;3902;49.474;8.616;2023-04-04T07:49:26;5.80;90.60
7720;DHT22;3902;49.474;8.616;2023-04-04T07:51:51;5.70;90.00
7720;DHT22;3902;49.474;8.616;2023-04-04T07:54:17;5.80;90.30
7720;DHT22;3902;49.474;8.616;2023-04-04T07:56:42;5.80;90.30
7720;DHT22;3902;49.474;8.616;2023-04-04T07:59:08;5.80;88.10
7720;DHT22;3902;49.474;8.616;2023-04-04T08:01:33;5.90;90.20
7720;DHT22;3902;49.474;8.616;2023-04-04T08:03:59;5.90;90.00
7720;DHT22;3902;49.474;8.616;2023-04-04T08:06:24;6.00;89.20
7720;DHT22;3902;49.474;8.616;2023-04-04T08:08:51;6.10;90.10
7720;DHT22;3902;49.474;8.616;2023-04-04T08:11:17;6.10;90.30
7720;DHT22;3902;49.474;8.616;2023-04-04T08:13:43;6.10;90.00
7720;DHT22;3902;49.474;8.616;2023-04-04T08:16:08;6.20;89.70
7720;DHT22;3902;49.474;8.616;2023-04-04T08:18:34;6.20;89.90
7720;DHT22;3902;49.474;8.616;2023-04-04T08:20:59;6.20;87.70
7720;DHT22;3902;49.474;8.616;2023-04-04T08:23:25;6.30;87.70
7720;DHT22;3902;49.474;8.616;2023-04-04T08:25:50;6.30;87.90
7720;DHT22;3902;49.474;8.616;2023-04-04T08:28:16;6.40;88.90
7720;DHT22;3902;49.474;8.616;2023-04-04T08:30:42;6.40;85.60
7720;DHT22;3902;49.474;8.616;2023-04-04T08:33:07;6.40;85.20
7720;DHT22;3902;49.474;8.616;2023-04-04T08:35:33;6.40;83.00
7720;DHT22;3902;49.474;8.616;2023-04-04T08:37:59;6.40;85.70
7720;DHT22;3902;49.474;8.616;2023-04-04T08:40:26;6.50;86.00
7720;DHT22;3902;49.474;8.616;2023-04-04T08:42:54;6.60;87.50
7720;DHT22;3902;49.474;8.616;2023-04-04T08:45:23;6.60;86.60
7720;DHT22;3902;49.474;8.616;2023-04-04T08:47:51;6.70;86.30
7720;DHT22;3902;49.474;8.616;2023-04-04T08:50:18;6.70;84.90
7720;DHT22;3902;49.474;8.616;2023-04-04T08:52:44;6.80;85.90
7720;DHT22;3902;49.474;8.616;2023-04-04T08:55:11;6.80;84.30
7720;DHT22;3902;49.474;8.616;2023-04-04T08:57:37;6.90;85.30
7720;DHT22;3902;49.474;8.616;2023-04-04T09:00:02;7.00;84.70
7720;DHT22;3902;49.474;8.616;2023-04-04T09:02:49;7.10;84.20
7720;DHT22;3902;49.474;8.616;2023-04-04T09:05:17;7.10;83.80
7720;DHT22;3902;49.474;8.616;2023-04-04T09:07:44;7.20;84.80
7720;DHT22;3902;49.474;8.616;2023-04-04T09:10:10;7.30;82.70
7720;DHT22;3902;49.474;8.616;2023-04-04T09:12:39;7.40;83.40
7720;DHT22;3902;49.474;8.616;2023-04-04T09:15:06;7.40;81.70
7720;DHT22;3902;49.474;8.616;2023-04-04T09:17:32;7.50;82.30
7720;DHT22;3902;49.474;8.616;2023-04-04T09:20:00;7.60;83.70
7720;DHT22;3902;49.474;8.616;2023-04-04T09:22:28;7.70;81.80
7720;DHT22;3902;49.474;8.616;2023-04-04T09:24:55;7.70;81.70
7720;DHT22;3902;49.474;8.616;2023-04-04T09:27:21;7.80;82.00
7720;DHT22;3902;49.474;8.616;2023-04-04T09:29:46;7.90;81.50
7720;DHT22;3902;49.474;8.616;2023-04-04T09:32:13;7.90;82.40
7720;DHT22;3902;49.474;8.616;2023-04-04T09:34:40;8.00;80.90
7720;DHT22;3902;49.474;8.616;2023-04-04T09:37:06;8.00;80.40
7720;DHT22;3902;49.474;8.616;2023-04-04T09:39:32;8.10;81.70
7720;DHT22;3902;49.474;8.616;2023-04-04T09:41:59;8.20;82.00
7720;DHT22;3902;49.474;8.616;2023-04-04T09:44:25;8.20;80.80
7720;DHT22;3902;49.474;8.616;2023-04-04T09:47:06;8.20;79.20
7720;DHT22;3902;49.474;8.616;2023-04-04T09:49:47;8.30;80.40
7720;DHT22;3902;49.474;8.616;2023-04-04T09:52:20;8.30;79.60
7720;DHT22;3902;49.474;8.616;2023-04-04T09:55:06;8.40;79.70
7720;DHT22;3902;49.474;8.616;2023-04-04T09:57:33;8.50;80.60
7720;DHT22;3902;49.474;8.616;2023-04-04T10:00:02;8.50;79.20
7720;DHT22;3902;49.474;8.616;2023-04-04T10:02:31;8.60;78.30
7720;DHT22;3902;49.474;8.616;2023-04-04T10:04:56;8.70;81.70
7720;DHT22;3902;49.474;8.616;2023-04-04T10:07:33;8.70;76.70
7720;DHT22;3902;49.474;8.616;2023-04-04T10:10:05;8.80;80.30
7720;DHT22;3902;49.474;8.616;2023-04-04T10:12:30;8.90;80.20
7720;DHT22;3902;49.474;8.616;2023-04-04T10:15:01;9.00;81.90
7720;DHT22;3902;49.474;8.616;2023-04-04T10:17:37;9.10;79.60
7720;DHT22;3902;49.474;8.616;2023-04-04T10:20:04;9.20;78.70
7720;DHT22;3902;49.474;8.616;2023-04-04T10:22:35;9.20;77.90
7720;DHT22;3902;49.474;8.616;2023-04-04T10:25:01;9.20;77.70
7720;DHT22;3902;49.474;8.616;2023-04-04T10:27:27;9.40;78.50
7720;DHT22;3902;49.474;8.616;2023-04-04T10:29:53;9.40;78.70
7720;DHT22;3902;49.474;8.616;2023-04-04T10:32:22;9.50;77.70
7720;DHT22;3902;49.474;8.616;2023-04-04T10:35:02;9.50;76.90
7720;DHT22;3902;49.474;8.616;2023-04-04T10:37:31;9.60;79.20
7720;DHT22;3902;49.474;8.616;2023-04-04T10:40:15;9.80;77.30
7720;DHT22;3902;49.474;8.616;2023-04-04T10:42:43;9.90;78.20
7720;DHT22;3902;49.474;8.616;2023-04-04T10:45:10;9.90;74.60
7720;DHT22;3902;49.474;8.616;2023-04-04T10:47:36;10.00;74.30
7720;DHT22;3902;49.474;8.616;2023-04-04T10:50:03;10.10;76.00
7720;DHT22;3902;49.474;8.616;2023-04-04T10:52:35;10.20;74.90
7720;DHT22;3902;49.474;8.616;2023-04-04T10:55:04;10.40;75.80
7720;DHT22;3902;49.474;8.616;2023-04-04T10:57:41;10.60;73.60
7720;DHT22;3902;49.474;8.616;2023-04-04T11:00:11;10.90;75.30
7720;DHT22;3902;49.474;8.616;2023-04-04T11:02:56;11.50;74.50
7720;DHT22;3902;49.474;8.616;2023-04-04T11:05:38;12.30;74.60
7720;DHT22;3902;49.474;8.616;2023-04-04T11:08:26;13.40;75.60
7720;DHT22;3902;49.474;8.616;2023-04-04T11:10:53;15.00;70.90
7720;DHT22;3902;49.474;8.616;2023-04-04T11:13:19;16.20;64.80
7720;DHT22;3902;49.474;8.616;2023-04-04T11:15:59;17.30;63.90
7720;DHT22;3902;49.474;8.616;2023-04-04T11:21:08;19.10;59.60
7720;DHT22;3902;49.474;8.616;2023-04-04T11:31:28;21.00;53.00
7720;DHT22;3902;49.474;8.616;2023-04-04T11:34:03;21.60;52.80
7720;DHT22;3902;49.474;8.616;2023-04-04T11:39:26;22.40;52.20
7720;DHT22;3902;49.474;8.616;2023-04-04T11:42:05;22.50;48.50
7720;DHT22;3902;49.474;8.616;2023-04-04T11:49:38;23.30;49.20
7720;DHT22;3902;49.474;8.616;2023-04-04T11:52:07;23.60;48.20
7720;DHT22;3902;49.474;8.616;2023-04-04T11:54:33;23.70;47.20
7720;DHT22;3902;49.474;8.616;2023-04-04T11:56:59;23.80;46.60
7720;DHT22;3902;49.474;8.616;2023-04-04T11:59:25;24.20;46.70
7720;DHT22;3902;49.474;8.616;2023-04-04T12:01:53;24.50;47.10
7720;DHT22;3902;49.474;8.616;2023-04-04T12:04:19;24.80;45.70
7720;DHT22;3902;49.474;8.616;2023-04-04T12:06:47;25.10;46.00
7720;DHT22;3902;49.474;8.616;2023-04-04T12:09:15;25.30;45.70
7720;DHT22;3902;49.474;8.616;2023-04-04T12:11:43;25.10;44.50
7720;DHT22;3902;49.474;8.616;2023-04-04T12:14:20;25.60;45.10
7720;DHT22;3902;49.474;8.616;2023-04-04T12:16:54;25.50;41.60
7720;DHT22;3902;49.474;8.616;2023-04-04T12:19:23;25.00;42.10
7720;DHT22;3902;49.474;8.616;2023-04-04T12:21:49;25.30;42.10
7720;DHT22;3902;49.474;8.616;2023-04-04T12:24:15;25.60;42.80
7720;DHT22;3902;49.474;8.616;2023-04-04T12:26:43;25.60;41.90
7720;DHT22;3902;49.474;8.616;2023-04-04T12:29:11;25.80;43.20
7720;DHT22;3902;49.474;8.616;2023-04-04T12:31:40;26.20;41.70
7720;DHT22;3902;49.474;8.616;2023-04-04T12:34:06;26.50;41.40
7720;DHT22;3902;49.474;8.616;2023-04-04T12:36:36;26.50;40.00
7720;DHT22;3902;49.474;8.616;2023-04-04T12:39:09;26.70;40.60
7720;DHT22;3902;49.474;8.616;2023-04-04T12:41:52;27.00;40.50
7720;DHT22;3902;49.474;8.616;2023-04-04T12:44:29;27.00;39.00
7720;DHT22;3902;49.474;8.616;2023-04-04T12:46:57;26.60;36.50
7720;DHT22;3902;49.474;8.616;2023-04-04T12:49:29;26.80;38.40
7720;DHT22;3902;49.474;8.616;2023-04-04T12:51:56;26.90;38.60
7720;DHT22;3902;49.474;8.616;2023-04-04T12:54:30;27.10;39.00
7720;DHT22;3902;49.474;8.616;2023-04-04T12:56:56;27.20;37.30
7720;DHT22;3902;49.474;8.616;2023-04-04T12:59:26;27.30;39.00
7720;DHT22;3902;49.474;8.616;2023-04-04T13:01:52;27.40;37.80
7720;DHT22;3902;49.474;8.616;2023-04-04T13:04:17;27.10;35.00
7720;DHT22;3902;49.474;8.616;2023-04-04T13:06:44;27.20;37.50
7720;DHT22;3902;49.474;8.616;2023-04-04T13:09:16;27.40;37.30
7720;DHT22;3902;49.474;8.616;2023-04-04T13:12:04;27.70;38.10
7720;DHT22;3902;49.474;8.616;2023-04-04T13:14:55;27.80;38.30
7720;DHT22;3902;49.474;8.616;2023-04-04T13:17:20;28.10;38.30
7720;DHT22;3902;49.474;8.616;2023-04-04T13:19:46;28.00;36.60
7720;DHT22;3902;49.474;8.616;2023-04-04T13:22:12;28.00;35.70
7720;DHT22;3902;49.474;8.616;2023-04-04T13:24:37;28.20;37.40
7720;DHT22;3902;49.474;8.616;2023-04-04T13:27:03;28.50;37.20
7720;DHT22;3902;49.474;8.616;2023-04-04T13:29:28;28.40;36.50
7720;DHT22;3902;49.474;8.616;2023-04-04T13:31:54;28.50;36.40
7720;DHT22;3902;49.474;8.616;2023-04-04T13:34:21;28.70;37.40
7720;DHT22;3902;49.474;8.616;2023-04-04T13:36:48;28.70;36.60
7720;DHT22;3902;49.474;8.616;2023-04-04T13:39:14;28.90;36.40
7720;DHT22;3902;49.474;8.616;2023-04-04T13:41:39;29.10;36.60
7720;DHT22;3902;49.474;8.616;2023-04-04T13:44:05;29.20;37.00
7720;DHT22;3902;49.474;8.616;2023-04-04T13:46:30;29.20;37.70
7720;DHT22;3902;49.474;8.616;2023-04-04T13:48:56;29.20;35.30
7720;DHT22;3902;49.474;8.616;2023-04-04T13:51:21;29.20;35.50
7720;DHT22;3902;49.474;8.616;2023-04-04T13:53:49;29.30;35.60
7720;DHT22;3902;49.474;8.616;2023-04-04T13:56:14;29.20;36.10
7720;DHT22;3902;49.474;8.616;2023-04-04T13:58:41;28.90;35.50
7720;DHT22;3902;49.474;8.616;2023-04-04T14:01:07;29.00;36.70
7720;DHT22;3902;49.474;8.616;2023-04-04T14:03:34;29.10;35.80
7720;DHT22;3902;49.474;8.616;2023-04-04T14:06:00;28.60;34.10
7720;DHT22;3902;49.474;8.616;2023-04-04T14:08:25;28.50;34.90
7720;DHT22;3902;49.474;8.616;2023-04-04T14:10:51;28.30;36.10
7720;DHT22;3902;49.474;8.616;2023-04-04T14:13:17;28.60;35.60
7720;DHT22;3902;49.474;8.616;2023-04-04T14:15:44;28.20;35.10
7720;DHT22;3902;49.474;8.616;2023-04-04T14:18:10;28.40;36.40
7720;DHT22;3902;49.474;8.616;2023-04-04T14:20:36;28.00;33.90
7720;DHT22;3902;49.474;8.616;2023-04-04T14:23:02;28.20;35.30
7720;DHT22;3902;49.474;8.616;2023-04-04T14:25:28;28.10;34.00
7720;DHT22;3902;49.474;8.616;2023-04-04T14:27:53;28.30;36.30
7720;DHT22;3902;49.474;8.616;2023-04-04T14:30:19;28.20;34.90
7720;DHT22;3902;49.474;8.616;2023-04-04T14:32:44;28.10;35.50
7720;DHT22;3902;49.474;8.616;2023-04-04T14:35:10;27.90;33.60
7720;DHT22;3902;49.474;8.616;2023-04-04T14:37:36;28.00;35.30
7720;DHT22;3902;49.474;8.616;2023-04-04T14:40:02;27.80;35.00
7720;DHT22;3902;49.474;8.616;2023-04-04T14:42:28;27.90;34.70
7720;DHT22;3902;49.474;8.616;2023-04-04T14:44:54;27.60;35.00
7720;DHT22;3902;49.474;8.616;2023-04-04T14:47:19;27.70;35.40
7720;DHT22;3902;49.474;8.616;2023-04-04T14:49:46;27.90;35.20
7720;DHT22;3902;49.474;8.616;2023-04-04T14:52:11;27.90;35.60
7720;DHT22;3902;49.474;8.616;2023-04-04T14:54:37;27.90;35.00
7720;DHT22;3902;49.474;8.616;2023-04-04T14:57:03;27.80;35.10
7720;DHT22;3902;49.474;8.616;2023-04-04T14:59:28;27.80;35.20
7720;DHT22;3902;49.474;8.616;2023-04-04T15:01:54;28.00;35.50
7720;DHT22;3902;49.474;8.616;2023-04-04T15:04:19;27.80;35.50
7720;DHT22;3902;49.474;8.616;2023-04-04T15:06:45;27.90;36.10
7720;DHT22;3902;49.474;8.616;2023-04-04T15:09:11;28.10;36.30
7720;DHT22;3902;49.474;8.616;2023-04-04T15:11:36;27.90;35.50
7720;DHT22;3902;49.474;8.616;2023-04-04T15:14:03;27.50;35.10
7720;DHT22;3902;49.474;8.616;2023-04-04T15:16:28;27.10;36.00
7720;DHT22;3902;49.474;8.616;2023-04-04T15:19:00;26.70;35.70
7720;DHT22;3902;49.474;8.616;2023-04-04T15:21:27;26.30;36.40
7720;DHT22;3902;49.474;8.616;2023-04-04T15:23:53;25.80;35.70
7720;DHT22;3902;49.474;8.616;2023-04-04T15:26:19;25.40;36.20
7720;DHT22;3902;49.474;8.616;2023-04-04T15:28:46;24.80;37.40
7720;DHT22;3902;49.474;8.616;2023-04-04T15:31:13;24.30;38.20
7720;DHT22;3902;49.474;8.616;2023-04-04T15:33:39;24.20;38.50
7720;DHT22;3902;49.474;8.616;2023-04-04T15:36:05;23.60;37.40
7720;DHT22;3902;49.474;8.616;2023-04-04T15:38:31;23.30;39.00
7720;DHT22;3902;49.474;8.616;2023-04-04T15:40:56;23.10;39.50
7720;DHT22;3902;49.474;8.616;2023-04-04T15:43:22;22.80;40.40
7720;DHT22;3902;49.474;8.616;2023-04-04T15:45:48;22.60;39.60
7720;DHT22;3902;49.474;8.616;2023-04-04T15:48:14;22.40;40.00
7720;DHT22;3902;49.474;8.616;2023-04-04T15:50:40;21.90;39.80
7720;DHT22;3902;49.474;8.616;2023-04-04T15:53:05;21.60;40.20
7720;DHT22;3902;49.474;8.616;2023-04-04T15:55:31;21.30;40.70
7720;DHT22;3902;49.474;8.616;2023-04-04T15:57:56;20.90;39.70
7720;DHT22;3902;49.474;8.616;2023-04-04T16:00:22;20.90;40.90
7720;DHT22;3902;49.474;8.616;2023-04-04T16:02:48;20.60;41.00
7720;DHT22;3902;49.474;8.616;2023-04-04T16:05:13;20.50;40.80
7720;DHT22;3902;49.474;8.616;2023-04-04T16:07:39;20.20;40.20
7720;DHT22;3902;49.474;8.616;2023-04-04T16:10:05;20.00;41.30
7720;DHT22;3902;49.474;8.616;2023-04-04T16:12:31;19.80;40.70
7720;DHT22;3902;49.474;8.616;2023-04-04T16:14:56;19.60;42.30
7720;DHT22;3902;49.474;8.616;2023-04-04T16:17:22;19.40;41.10
7720;DHT22;3902;49.474;8.616;2023-04-04T16:19:49;19.20;42.40
7720;DHT22;3902;49.474;8.616;2023-04-04T16:22:15;19.00;42.70
7720;DHT22;3902;49.474;8.616;2023-04-04T16:24:40;18.70;42.20
7720;DHT22;3902;49.474;8.616;2023-04-04T16:27:06;18.60;43.20
7720;DHT22;3902;49.474;8.616;2023-04-04T16:29:32;18.40;43.00